sensor_id;sensor_type;location;lat;lon;timestamp;P1;durP1;ratioP1;P2;durP2;ratioP2
3747;SDS011;1889;50.058;8.688;2024-01-11T00:00:06;34.13;;;20.45;;
3747;SDS011;1889;50.058;8.688;2024-01-11T00:02:36;33.10;;;20.85;;
3747;SDS011;1889;50.058;8.688;2024-01-11T00:05:05;31.02;;;20.62;;
3747;SDS011;1889;50.058;8.688;2024-01-11T00:07:34;31.87;;;20.15;;
3747;SDS011;1889;50.058;8.688;2024-01-11T00:10:05;31.55;;;19.85;;
3747;SDS011;1889;50.058;8.688;2024-01-11T00:12:35;28.77;;;18.52;;
3747;SDS011;1889;50.058;8.688;2024-01-11T00:15:15;30.90;;;19.07;;
3747;SDS011;1889;50.058;8.688;2024-01-11T00:17:36;31.87;;;20.17;;
3747;SDS011;1889;50.058;8.688;2024-01-11T00:20:10;32.95;;;19.85;;
3747;SDS011;1889;50.058;8.688;2024-01-11T00:22:42;28.23;;;18.95;;
3747;SDS011;1889;50.058;8.688;2024-01-11T00:25:11;35.20;;;20.65;;
3747;SDS011;1889;50.058;8.688;2024-01-11T00:27:39;31.20;;;20.10;;
3747;SDS011;1889;50.058;8.688;2024-01-11T00:30:09;32.35;;;20.75;;
3747;SDS011;1889;50.058;8.688;2024-01-11T00:32:38;34.98;;;19.45;;
3747;SDS011;1889;50.058;8.688;2024-01-11T00:35:07;32.83;;;20.17;;
3747;SDS011;1889;50.058;8.688;2024-01-11T00:37:35;31.85;;;19.85;;
3747;SDS011;1889;50.058;8.688;2024-01-11T00:40:05;32.50;;;19.65;;
3747;SDS011;1889;50.058;8.688;2024-01-11T00:42:34;28.38;;;18.73;;
3747;SDS011;1889;50.058;8.688;2024-01-11T00:45:03;37.53;;;20.80;;
3747;SDS011;1889;50.058;8.688;2024-01-11T00:47:32;31.23;;;19.60;;
3747;SDS011;1889;50.058;8.688;2024-01-11T00:50:01;30.40;;;19.35;;
3747;SDS011;1889;50.058;8.688;2024-01-11T00:52:30;32.42;;;20.27;;
3747;SDS011;1889;50.058;8.688;2024-01-11T00:54:59;33.83;;;20.60;;
3747;SDS011;1889;50.058;8.688;2024-01-11T00:57:28;31.30;;;19.45;;
3747;SDS011;1889;50.058;8.688;2024-01-11T00:59:57;30.08;;;20.40;;
3747;SDS011;1889;50.058;8.688;2024-01-11T01:02:26;29.50;;;19.50;;
3747;SDS011;1889;50.058;8.688;2024-01-11T01:04:55;32.48;;;18.87;;
3747;SDS011;1889;50.058;8.688;2024-01-11T01:07:25;31.17;;;18.27;;
3747;SDS011;1889;50.058;8.688;2024-01-11T01:09:54;30.65;;;19.42;;
3747;SDS011;1889;50.058;8.688;2024-01-11T01:12:23;31.62;;;19.27;;
3747;SDS011;1889;50.058;8.688;2024-01-11T01:14:55;30.17;;;19.37;;
3747;SDS011;1889;50.058;8.688;2024-01-11T01:17:24;29.37;;;19.20;;
3747;SDS011;1889;50.058;8.688;2024-01-11T01:19:53;34.73;;;20.10;;
3747;SDS011;1889;50.058;8.688;2024-01-11T01:22:22;32.88;;;19.48;;
3747;SDS011;1889;50.058;8.688;2024-01-11T01:24:50;31.67;;;19.77;;
3747;SDS011;1889;50.058;8.688;2024-01-11T01:27:19;33.55;;;19.37;;
3747;SDS011;1889;50.058;8.688;2024-01-11T01:29:48;29.97;;;19.33;;
3747;SDS011;1889;50.058;8.688;2024-01-11T01:32:17;32.48;;;19.15;;
3747;SDS011;1889;50.058;8.688;2024-01-11T01:34:46;28.00;;;17.92;;
3747;SDS011;1889;50.058;8.688;2024-01-11T01:37:15;34.65;;;20.70;;
3747;SDS011;1889;50.058;8.688;2024-01-11T01:39:44;33.60;;;20.75;;
3747;SDS011;1889;50.058;8.688;2024-01-11T01:42:13;31.60;;;20.12;;
3747;SDS011;1889;50.058;8.688;2024-01-11T01:44:42;33.67;;;19.32;;
3747;SDS011;1889;50.058;8.688;2024-01-11T01:47:11;31.33;;;19.30;;
3747;SDS011;1889;50.058;8.688;2024-01-11T01:49:40;30.32;;;18.12;;
3747;SDS011;1889;50.058;8.688;2024-01-11T01:52:10;30.55;;;19.07;;
3747;SDS011;1889;50.058;8.688;2024-01-11T01:54:41;28.83;;;18.50;;
3747;SDS011;1889;50.058;8.688;2024-01-11T01:57:10;31.05;;;18.35;;
3747;SDS011;1889;50.058;8.688;2024-01-11T01:59:41;29.35;;;19.17;;
3747;SDS011;1889;50.058;8.688;2024-01-11T02:02:10;30.52;;;19.05;;
3747;SDS011;1889;50.058;8.688;2024-01-11T02:04:40;29.70;;;18.75;;
3747;SDS011;1889;50.058;8.688;2024-01-11T02:07:09;30.85;;;18.77;;
3747;SDS011;1889;50.058;8.688;2024-01-11T02:09:42;33.50;;;19.67;;
3747;SDS011;1889;50.058;8.688;2024-01-11T02:12:11;32.15;;;19.40;;
3747;SDS011;1889;50.058;8.688;2024-01-11T02:14:42;32.83;;;18.95;;
3747;SDS011;1889;50.058;8.688;2024-01-11T02:17:10;31.20;;;19.40;;
3747;SDS011;1889;50.058;8.688;2024-01-11T02:19:40;32.17;;;19.30;;
3747;SDS011;1889;50.058;8.688;2024-01-11T02:22:11;31.95;;;19.62;;
3747;SDS011;1889;50.058;8.688;2024-01-11T02:24:53;34.15;;;19.80;;
3747;SDS011;1889;50.058;8.688;2024-01-11T02:27:21;32.03;;;20.35;;
3747;SDS011;1889;50.058;8.688;2024-01-11T02:29:51;31.33;;;19.90;;
3747;SDS011;1889;50.058;8.688;2024-01-11T02:32:19;32.93;;;19.23;;
3747;SDS011;1889;50.058;8.688;2024-01-11T02:34:49;31.90;;;19.92;;
3747;SDS011;1889;50.058;8.688;2024-01-11T02:37:19;31.82;;;20.00;;
3747;SDS011;1889;50.058;8.688;2024-01-11T02:39:48;33.78;;;19.32;;
3747;SDS011;1889;50.058;8.688;2024-01-11T02:42:16;31.02;;;18.90;;
3747;SDS011;1889;50.058;8.688;2024-01-11T02:44:45;27.22;;;18.25;;
3747;SDS011;1889;50.058;8.688;2024-01-11T02:47:16;31.68;;;18.37;;
3747;SDS011;1889;50.058;8.688;2024-01-11T02:49:44;27.25;;;17.52;;
3747;SDS011;1889;50.058;8.688;2024-01-11T02:52:13;35.03;;;18.62;;
3747;SDS011;1889;50.058;8.688;2024-01-11T02:54:42;30.45;;;18.15;;
3747;SDS011;1889;50.058;8.688;2024-01-11T02:57:11;28.23;;;18.37;;
3747;SDS011;1889;50.058;8.688;2024-01-11T02:59:40;30.82;;;18.50;;
3747;SDS011;1889;50.058;8.688;2024-01-11T03:02:10;30.23;;;18.62;;
3747;SDS011;1889;50.058;8.688;2024-01-11T03:04:39;29.92;;;18.60;;
3747;SDS011;1889;50.058;8.688;2024-01-11T03:07:08;29.07;;;18.55;;
3747;SDS011;1889;50.058;8.688;2024-01-11T03:09:37;31.50;;;19.10;;
3747;SDS011;1889;50.058;8.688;2024-01-11T03:12:06;28.60;;;18.65;;
3747;SDS011;1889;50.058;8.688;2024-01-11T03:14:34;29.02;;;18.80;;
3747;SDS011;1889;50.058;8.688;2024-01-11T03:17:04;25.27;;;17.02;;
3747;SDS011;1889;50.058;8.688;2024-01-11T03:19:33;30.82;;;18.95;;
3747;SDS011;1889;50.058;8.688;2024-01-11T03:22:03;25.55;;;17.12;;
3747;SDS011;1889;50.058;8.688;2024-01-11T03:24:37;30.25;;;17.80;;
3747;SDS011;1889;50.058;8.688;2024-01-11T03:27:07;30.65;;;17.48;;
3747;SDS011;1889;50.058;8.688;2024-01-11T03:29:35;28.25;;;18.42;;
3747;SDS011;1889;50.058;8.688;2024-01-11T03:32:04;28.75;;;17.70;;
3747;SDS011;1889;50.058;8.688;2024-01-11T03:34:33;28.90;;;19.20;;
3747;SDS011;1889;50.058;8.688;2024-01-11T03:37:03;26.00;;;17.07;;
3747;SDS011;1889;50.058;8.688;2024-01-11T03:39:33;30.70;;;18.55;;
3747;SDS011;1889;50.058;8.688;2024-01-11T03:42:02;29.67;;;18.12;;
3747;SDS011;1889;50.058;8.688;2024-01-11T03:44:31;30.43;;;18.55;;
3747;SDS011;1889;50.058;8.688;2024-01-11T03:47:00;30.08;;;18.65;;
3747;SDS011;1889;50.058;8.688;2024-01-11T03:49:29;32.15;;;19.52;;
3747;SDS011;1889;50.058;8.688;2024-01-11T03:51:58;30.52;;;18.05;;
3747;SDS011;1889;50.058;8.688;2024-01-11T03:54:26;34.05;;;19.05;;
3747;SDS011;1889;50.058;8.688;2024-01-11T03:56:55;31.17;;;20.23;;
3747;SDS011;1889;50.058;8.688;2024-01-11T03:59:24;30.77;;;18.15;;
3747;SDS011;1889;50.058;8.688;2024-01-11T04:01:52;29.82;;;19.48;;
3747;SDS011;1889;50.058;8.688;2024-01-11T04:04:21;28.02;;;18.85;;
3747;SDS011;1889;50.058;8.688;2024-01-11T04:06:51;29.35;;;18.35;;
3747;SDS011;1889;50.058;8.688;2024-01-11T04:09:20;28.80;;;18.77;;
3747;SDS011;1889;50.058;8.688;2024-01-11T04:11:48;31.42;;;18.95;;
3747;SDS011;1889;50.058;8.688;2024-01-11T04:14:17;27.62;;;18.92;;
3747;SDS011;1889;50.058;8.688;2024-01-11T04:16:46;28.17;;;18.98;;
3747;SDS011;1889;50.058;8.688;2024-01-11T04:19:15;31.00;;;18.23;;
3747;SDS011;1889;50.058;8.688;2024-01-11T04:21:43;29.92;;;19.00;;
3747;SDS011;1889;50.058;8.688;2024-01-11T04:24:12;32.70;;;19.67;;
3747;SDS011;1889;50.058;8.688;2024-01-11T04:26:41;30.00;;;18.48;;
3747;SDS011;1889;50.058;8.688;2024-01-11T04:29:10;30.97;;;18.48;;
3747;SDS011;1889;50.058;8.688;2024-01-11T04:31:39;29.40;;;18.40;;
3747;SDS011;1889;50.058;8.688;2024-01-11T04:34:07;32.98;;;19.92;;
3747;SDS011;1889;50.058;8.688;2024-01-11T04:36:39;27.30;;;18.05;;
3747;SDS011;1889;50.058;8.688;2024-01-11T04:39:08;31.48;;;19.00;;
3747;SDS011;1889;50.058;8.688;2024-01-11T04:41:39;30.17;;;19.40;;
3747;SDS011;1889;50.058;8.688;2024-01-11T04:44:07;32.90;;;19.42;;
3747;SDS011;1889;50.058;8.688;2024-01-11T04:46:37;32.98;;;20.62;;
3747;SDS011;1889;50.058;8.688;2024-01-11T04:49:06;32.40;;;19.20;;
3747;SDS011;1889;50.058;8.688;2024-01-11T04:51:35;32.17;;;19.42;;
3747;SDS011;1889;50.058;8.688;2024-01-11T04:54:03;33.60;;;19.60;;
3747;SDS011;1889;50.058;8.688;2024-01-11T04:56:32;31.17;;;19.80;;
3747;SDS011;1889;50.058;8.688;2024-01-11T04:59:01;33.75;;;19.10;;
3747;SDS011;1889;50.058;8.688;2024-01-11T05:01:30;31.97;;;19.95;;
3747;SDS011;1889;50.058;8.688;2024-01-11T05:03:59;30.68;;;20.10;;
3747;SDS011;1889;50.058;8.688;2024-01-11T05:06:28;30.57;;;19.20;;
3747;SDS011;1889;50.058;8.688;2024-01-11T05:08:58;33.38;;;19.65;;
3747;SDS011;1889;50.058;8.688;2024-01-11T05:11:26;32.13;;;19.37;;
3747;SDS011;1889;50.058;8.688;2024-01-11T05:13:55;34.25;;;20.88;;
3747;SDS011;1889;50.058;8.688;2024-01-11T05:16:25;32.13;;;20.27;;
3747;SDS011;1889;50.058;8.688;2024-01-11T05:18:56;35.88;;;19.23;;
3747;SDS011;1889;50.058;8.688;2024-01-11T05:21:25;33.05;;;20.52;;
3747;SDS011;1889;50.058;8.688;2024-01-11T05:23:54;33.50;;;19.82;;
3747;SDS011;1889;50.058;8.688;2024-01-11T05:26:23;32.67;;;19.95;;
3747;SDS011;1889;50.058;8.688;2024-01-11T05:28:51;32.10;;;18.80;;
3747;SDS011;1889;50.058;8.688;2024-01-11T05:31:20;31.40;;;18.90;;
3747;SDS011;1889;50.058;8.688;2024-01-11T05:33:49;33.15;;;20.23;;
3747;SDS011;1889;50.058;8.688;2024-01-11T05:36:18;34.83;;;20.20;;
3747;SDS011;1889;50.058;8.688;2024-01-11T05:38:46;35.10;;;19.95;;
3747;SDS011;1889;50.058;8.688;2024-01-11T05:41:16;32.40;;;21.30;;
3747;SDS011;1889;50.058;8.688;2024-01-11T05:43:45;33.18;;;20.30;;
3747;SDS011;1889;50.058;8.688;2024-01-11T05:46:14;33.73;;;20.85;;
3747;SDS011;1889;50.058;8.688;2024-01-11T05:48:43;31.57;;;20.68;;
3747;SDS011;1889;50.058;8.688;2024-01-11T05:51:12;40.23;;;22.87;;
3747;SDS011;1889;50.058;8.688;2024-01-11T05:53:41;39.65;;;21.57;;
3747;SDS011;1889;50.058;8.688;2024-01-11T05:56:10;36.55;;;21.55;;
3747;SDS011;1889;50.058;8.688;2024-01-11T05:58:39;41.00;;;22.00;;
3747;SDS011;1889;50.058;8.688;2024-01-11T06:01:08;33.02;;;21.35;;
3747;SDS011;1889;50.058;8.688;2024-01-11T06:03:36;38.23;;;23.15;;
3747;SDS011;1889;50.058;8.688;2024-01-11T06:06:06;39.85;;;22.42;;
3747;SDS011;1889;50.058;8.688;2024-01-11T06:08:35;40.45;;;23.32;;
3747;SDS011;1889;50.058;8.688;2024-01-11T06:11:05;38.53;;;22.40;;
3747;SDS011;1889;50.058;8.688;2024-01-11T06:13:35;39.98;;;22.37;;
3747;SDS011;1889;50.058;8.688;2024-01-11T06:16:03;39.75;;;22.40;;
3747;SDS011;1889;50.058;8.688;2024-01-11T06:18:33;38.60;;;22.48;;
3747;SDS011;1889;50.058;8.688;2024-01-11T06:21:02;41.65;;;22.17;;
3747;SDS011;1889;50.058;8.688;2024-01-11T06:23:32;36.53;;;22.17;;
3747;SDS011;1889;50.058;8.688;2024-01-11T06:26:01;36.35;;;21.10;;
3747;SDS011;1889;50.058;8.688;2024-01-11T06:28:30;37.23;;;22.27;;
3747;SDS011;1889;50.058;8.688;2024-01-11T06:30:59;35.30;;;21.37;;
3747;SDS011;1889;50.058;8.688;2024-01-11T06:33:28;35.83;;;21.20;;
3747;SDS011;1889;50.058;8.688;2024-01-11T06:35:58;37.85;;;22.15;;
3747;SDS011;1889;50.058;8.688;2024-01-11T06:38:27;37.85;;;23.62;;
3747;SDS011;1889;50.058;8.688;2024-01-11T06:40:56;36.90;;;21.27;;
3747;SDS011;1889;50.058;8.688;2024-01-11T06:43:26;41.37;;;22.93;;
3747;SDS011;1889;50.058;8.688;2024-01-11T06:45:55;41.05;;;22.73;;
3747;SDS011;1889;50.058;8.688;2024-01-11T06:48:24;38.53;;;22.05;;
3747;SDS011;1889;50.058;8.688;2024-01-11T06:50:53;35.20;;;22.17;;
3747;SDS011;1889;50.058;8.688;2024-01-11T06:53:22;40.65;;;23.12;;
3747;SDS011;1889;50.058;8.688;2024-01-11T06:55:51;36.73;;;21.52;;
3747;SDS011;1889;50.058;8.688;2024-01-11T06:58:23;33.53;;;21.33;;
3747;SDS011;1889;50.058;8.688;2024-01-11T07:00:51;40.70;;;22.80;;
3747;SDS011;1889;50.058;8.688;2024-01-11T07:03:20;39.67;;;22.42;;
3747;SDS011;1889;50.058;8.688;2024-01-11T07:05:50;37.85;;;22.70;;
3747;SDS011;1889;50.058;8.688;2024-01-11T07:08:19;37.60;;;22.87;;
3747;SDS011;1889;50.058;8.688;2024-01-11T07:10:49;46.08;;;24.07;;
3747;SDS011;1889;50.058;8.688;2024-01-11T07:13:19;39.15;;;23.00;;
3747;SDS011;1889;50.058;8.688;2024-01-11T07:15:48;39.92;;;23.75;;
3747;SDS011;1889;50.058;8.688;2024-01-11T07:18:18;44.50;;;22.67;;
3747;SDS011;1889;50.058;8.688;2024-01-11T07:20:48;38.48;;;22.27;;
3747;SDS011;1889;50.058;8.688;2024-01-11T07:23:17;40.75;;;23.22;;
3747;SDS011;1889;50.058;8.688;2024-01-11T07:25:46;35.33;;;22.32;;
3747;SDS011;1889;50.058;8.688;2024-01-11T07:28:15;35.47;;;22.47;;
3747;SDS011;1889;50.058;8.688;2024-01-11T07:30:45;38.28;;;21.80;;
3747;SDS011;1889;50.058;8.688;2024-01-11T07:33:13;39.30;;;22.05;;
3747;SDS011;1889;50.058;8.688;2024-01-11T07:35:42;39.27;;;23.12;;
3747;SDS011;1889;50.058;8.688;2024-01-11T07:38:12;38.60;;;22.50;;
3747;SDS011;1889;50.058;8.688;2024-01-11T07:40:42;40.03;;;21.90;;
3747;SDS011;1889;50.058;8.688;2024-01-11T07:43:11;41.05;;;24.20;;
3747;SDS011;1889;50.058;8.688;2024-01-11T07:45:41;35.05;;;21.70;;
3747;SDS011;1889;50.058;8.688;2024-01-11T07:48:10;39.88;;;22.27;;
3747;SDS011;1889;50.058;8.688;2024-01-11T07:50:40;35.85;;;21.55;;
3747;SDS011;1889;50.058;8.688;2024-01-11T07:53:09;37.58;;;22.75;;
3747;SDS011;1889;50.058;8.688;2024-01-11T07:55:39;37.93;;;22.37;;
3747;SDS011;1889;50.058;8.688;2024-01-11T07:58:08;37.70;;;22.90;;
3747;SDS011;1889;50.058;8.688;2024-01-11T08:00:38;35.33;;;22.42;;
3747;SDS011;1889;50.058;8.688;2024-01-11T08:03:07;37.53;;;23.60;;
3747;SDS011;1889;50.058;8.688;2024-01-11T08:05:36;38.60;;;23.53;;
3747;SDS011;1889;50.058;8.688;2024-01-11T08:08:05;39.73;;;22.73;;
3747;SDS011;1889;50.058;8.688;2024-01-11T08:10:33;36.40;;;22.13;;
3747;SDS011;1889;50.058;8.688;2024-01-11T08:13:02;47.13;;;23.77;;
3747;SDS011;1889;50.058;8.688;2024-01-11T08:15:32;42.95;;;23.50;;
3747;SDS011;1889;50.058;8.688;2024-01-11T08:18:01;37.33;;;22.22;;
3747;SDS011;1889;50.058;8.688;2024-01-11T08:20:31;41.02;;;23.35;;
3747;SDS011;1889;50.058;8.688;2024-01-11T08:23:01;38.50;;;23.55;;
3747;SDS011;1889;50.058;8.688;2024-01-11T08:25:30;38.80;;;23.85;;
3747;SDS011;1889;50.058;8.688;2024-01-11T08:27:59;39.20;;;23.00;;
3747;SDS011;1889;50.058;8.688;2024-01-11T08:30:29;35.55;;;22.50;;
3747;SDS011;1889;50.058;8.688;2024-01-11T08:32:58;39.17;;;21.97;;
3747;SDS011;1889;50.058;8.688;2024-01-11T08:35:27;37.00;;;23.73;;
3747;SDS011;1889;50.058;8.688;2024-01-11T08:37:57;41.28;;;23.65;;
3747;SDS011;1889;50.058;8.688;2024-01-11T08:40:26;38.15;;;23.67;;
3747;SDS011;1889;50.058;8.688;2024-01-11T08:42:55;39.45;;;23.75;;
3747;SDS011;1889;50.058;8.688;2024-01-11T08:45:25;37.75;;;23.98;;
3747;SDS011;1889;50.058;8.688;2024-01-11T08:47:56;38.48;;;24.43;;
3747;SDS011;1889;50.058;8.688;2024-01-11T08:50:26;40.12;;;24.15;;
3747;SDS011;1889;50.058;8.688;2024-01-11T08:52:55;37.25;;;23.47;;
3747;SDS011;1889;50.058;8.688;2024-01-11T08:55:24;38.28;;;24.60;;
3747;SDS011;1889;50.058;8.688;2024-01-11T08:57:54;37.95;;;22.65;;
3747;SDS011;1889;50.058;8.688;2024-01-11T09:00:24;38.55;;;23.47;;
3747;SDS011;1889;50.058;8.688;2024-01-11T09:02:53;38.70;;;23.83;;
3747;SDS011;1889;50.058;8.688;2024-01-11T09:05:22;43.05;;;22.98;;
3747;SDS011;1889;50.058;8.688;2024-01-11T09:07:52;41.65;;;23.55;;
3747;SDS011;1889;50.058;8.688;2024-01-11T09:10:21;40.10;;;24.45;;
3747;SDS011;1889;50.058;8.688;2024-01-11T09:12:50;34.73;;;22.60;;
3747;SDS011;1889;50.058;8.688;2024-01-11T09:15:20;41.53;;;24.05;;
3747;SDS011;1889;50.058;8.688;2024-01-11T09:17:49;40.17;;;22.87;;
3747;SDS011;1889;50.058;8.688;2024-01-11T09:20:18;38.78;;;22.85;;
3747;SDS011;1889;50.058;8.688;2024-01-11T09:22:47;37.55;;;22.20;;
3747;SDS011;1889;50.058;8.688;2024-01-11T09:25:17;39.13;;;23.45;;
3747;SDS011;1889;50.058;8.688;2024-01-11T09:27:46;36.93;;;22.82;;
3747;SDS011;1889;50.058;8.688;2024-01-11T09:30:16;39.90;;;23.50;;
3747;SDS011;1889;50.058;8.688;2024-01-11T09:32:45;38.92;;;21.65;;
3747;SDS011;1889;50.058;8.688;2024-01-11T09:35:14;35.15;;;21.37;;
3747;SDS011;1889;50.058;8.688;2024-01-11T09:37:43;42.37;;;22.37;;
3747;SDS011;1889;50.058;8.688;2024-01-11T09:40:14;38.10;;;22.52;;
3747;SDS011;1889;50.058;8.688;2024-01-11T09:42:44;36.73;;;22.42;;
3747;SDS011;1889;50.058;8.688;2024-01-11T09:45:13;38.93;;;23.07;;
3747;SDS011;1889;50.058;8.688;2024-01-11T09:47:45;40.33;;;23.30;;
3747;SDS011;1889;50.058;8.688;2024-01-11T09:50:15;42.35;;;24.15;;
3747;SDS011;1889;50.058;8.688;2024-01-11T09:52:49;34.92;;;22.87;;
3747;SDS011;1889;50.058;8.688;2024-01-11T09:55:19;38.83;;;23.20;;
3747;SDS011;1889;50.058;8.688;2024-01-11T09:57:48;36.87;;;23.70;;
3747;SDS011;1889;50.058;8.688;2024-01-11T10:00:22;42.15;;;24.10;;
3747;SDS011;1889;50.058;8.688;2024-01-11T10:02:53;40.25;;;24.47;;
3747;SDS011;1889;50.058;8.688;2024-01-11T10:05:23;41.18;;;24.35;;
3747;SDS011;1889;50.058;8.688;2024-01-11T10:07:52;37.73;;;22.60;;
3747;SDS011;1889;50.058;8.688;2024-01-11T10:10:21;42.15;;;24.65;;
3747;SDS011;1889;50.058;8.688;2024-01-11T10:12:51;37.00;;;23.40;;
3747;SDS011;1889;50.058;8.688;2024-01-11T10:15:21;36.63;;;23.93;;
3747;SDS011;1889;50.058;8.688;2024-01-11T10:17:51;41.53;;;24.52;;
3747;SDS011;1889;50.058;8.688;2024-01-11T10:20:21;37.90;;;22.82;;
3747;SDS011;1889;50.058;8.688;2024-01-11T10:22:50;42.78;;;23.20;;
3747;SDS011;1889;50.058;8.688;2024-01-11T10:25:20;39.95;;;23.98;;
3747;SDS011;1889;50.058;8.688;2024-01-11T10:27:49;39.70;;;23.60;;
3747;SDS011;1889;50.058;8.688;2024-01-11T10:30:18;36.85;;;23.02;;
3747;SDS011;1889;50.058;8.688;2024-01-11T10:32:50;39.88;;;22.58;;
3747;SDS011;1889;50.058;8.688;2024-01-11T10:35:19;34.98;;;23.57;;
3747;SDS011;1889;50.058;8.688;2024-01-11T10:37:50;35.35;;;23.15;;
3747;SDS011;1889;50.058;8.688;2024-01-11T10:40:21;38.92;;;23.22;;
3747;SDS011;1889;50.058;8.688;2024-01-11T10:42:52;42.03;;;24.15;;
3747;SDS011;1889;50.058;8.688;2024-01-11T10:45:21;36.70;;;23.77;;
3747;SDS011;1889;50.058;8.688;2024-01-11T10:48:01;37.80;;;22.70;;
3747;SDS011;1889;50.058;8.688;2024-01-11T10:50:33;37.80;;;23.92;;
3747;SDS011;1889;50.058;8.688;2024-01-11T10:56:11;41.68;;;23.83;;
3747;SDS011;1889;50.058;8.688;2024-01-11T10:58:40;39.33;;;23.45;;
3747;SDS011;1889;50.058;8.688;2024-01-11T11:01:11;36.08;;;23.50;;
3747;SDS011;1889;50.058;8.688;2024-01-11T11:03:41;40.30;;;23.75;;
3747;SDS011;1889;50.058;8.688;2024-01-11T11:06:13;35.92;;;23.38;;
3747;SDS011;1889;50.058;8.688;2024-01-11T11:08:44;44.88;;;24.27;;
3747;SDS011;1889;50.058;8.688;2024-01-11T11:11:14;42.38;;;24.60;;
3747;SDS011;1889;50.058;8.688;2024-01-11T11:13:46;38.05;;;24.43;;
3747;SDS011;1889;50.058;8.688;2024-01-11T11:16:18;38.35;;;23.15;;
3747;SDS011;1889;50.058;8.688;2024-01-11T11:18:46;42.03;;;23.42;;
3747;SDS011;1889;50.058;8.688;2024-01-11T11:21:15;43.13;;;23.52;;
3747;SDS011;1889;50.058;8.688;2024-01-11T11:23:44;41.07;;;23.60;;
3747;SDS011;1889;50.058;8.688;2024-01-11T11:26:16;37.48;;;22.70;;
3747;SDS011;1889;50.058;8.688;2024-01-11T11:28:46;36.17;;;23.02;;
3747;SDS011;1889;50.058;8.688;2024-01-11T11:31:34;37.65;;;23.32;;
3747;SDS011;1889;50.058;8.688;2024-01-11T11:34:05;36.10;;;23.00;;
3747;SDS011;1889;50.058;8.688;2024-01-11T11:36:34;36.83;;;23.22;;
3747;SDS011;1889;50.058;8.688;2024-01-11T11:39:03;35.08;;;21.77;;
3747;SDS011;1889;50.058;8.688;2024-01-11T11:41:32;37.20;;;21.75;;
3747;SDS011;1889;50.058;8.688;2024-01-11T11:44:01;38.73;;;23.35;;
3747;SDS011;1889;50.058;8.688;2024-01-11T11:46:30;37.20;;;22.58;;
3747;SDS011;1889;50.058;8.688;2024-01-11T11:49:00;35.23;;;22.30;;
3747;SDS011;1889;50.058;8.688;2024-01-11T11:51:29;36.58;;;22.93;;
3747;SDS011;1889;50.058;8.688;2024-01-11T11:54:00;37.38;;;22.35;;
3747;SDS011;1889;50.058;8.688;2024-01-11T11:56:31;34.03;;;21.65;;
3747;SDS011;1889;50.058;8.688;2024-01-11T11:59:02;35.35;;;21.55;;
3747;SDS011;1889;50.058;8.688;2024-01-11T12:01:31;38.38;;;21.27;;
3747;SDS011;1889;50.058;8.688;2024-01-11T12:04:01;31.10;;;20.17;;
3747;SDS011;1889;50.058;8.688;2024-01-11T12:06:30;34.85;;;19.87;;
3747;SDS011;1889;50.058;8.688;2024-01-11T12:09:00;33.50;;;21.27;;
3747;SDS011;1889;50.058;8.688;2024-01-11T12:11:30;34.70;;;19.82;;
3747;SDS011;1889;50.058;8.688;2024-01-11T12:13:59;31.73;;;21.17;;
3747;SDS011;1889;50.058;8.688;2024-01-11T12:16:28;29.35;;;19.25;;
3747;SDS011;1889;50.058;8.688;2024-01-11T12:18:58;27.93;;;19.45;;
3747;SDS011;1889;50.058;8.688;2024-01-11T12:21:26;33.55;;;22.32;;
3747;SDS011;1889;50.058;8.688;2024-01-11T12:23:57;29.18;;;20.80;;
3747;SDS011;1889;50.058;8.688;2024-01-11T12:26:28;32.80;;;21.12;;
3747;SDS011;1889;50.058;8.688;2024-01-11T12:28:57;30.45;;;20.08;;
3747;SDS011;1889;50.058;8.688;2024-01-11T12:31:27;32.53;;;20.27;;
3747;SDS011;1889;50.058;8.688;2024-01-11T12:33:56;33.25;;;21.85;;
3747;SDS011;1889;50.058;8.688;2024-01-11T12:36:26;32.08;;;21.70;;
3747;SDS011;1889;50.058;8.688;2024-01-11T12:38:57;32.33;;;22.02;;
3747;SDS011;1889;50.058;8.688;2024-01-11T12:41:27;38.65;;;25.17;;
3747;SDS011;1889;50.058;8.688;2024-01-11T12:43:56;29.85;;;19.30;;
3747;SDS011;1889;50.058;8.688;2024-01-11T12:46:25;31.82;;;20.02;;
3747;SDS011;1889;50.058;8.688;2024-01-11T12:48:55;30.82;;;19.67;;
3747;SDS011;1889;50.058;8.688;2024-01-11T12:51:25;29.50;;;19.23;;
3747;SDS011;1889;50.058;8.688;2024-01-11T12:53:55;31.25;;;19.42;;
3747;SDS011;1889;50.058;8.688;2024-01-11T12:56:26;27.22;;;18.65;;
3747;SDS011;1889;50.058;8.688;2024-01-11T12:59:04;33.40;;;20.35;;
3747;SDS011;1889;50.058;8.688;2024-01-11T13:01:39;26.87;;;18.67;;
3747;SDS011;1889;50.058;8.688;2024-01-11T13:04:08;30.48;;;18.67;;
3747;SDS011;1889;50.058;8.688;2024-01-11T13:06:38;28.27;;;19.00;;
3747;SDS011;1889;50.058;8.688;2024-01-11T13:09:07;29.27;;;19.02;;
3747;SDS011;1889;50.058;8.688;2024-01-11T13:11:37;29.85;;;17.98;;
3747;SDS011;1889;50.058;8.688;2024-01-11T13:14:06;27.93;;;18.62;;
3747;SDS011;1889;50.058;8.688;2024-01-11T13:16:37;27.45;;;18.40;;
3747;SDS011;1889;50.058;8.688;2024-01-11T13:19:07;27.45;;;18.48;;
3747;SDS011;1889;50.058;8.688;2024-01-11T13:21:38;29.63;;;19.02;;
3747;SDS011;1889;50.058;8.688;2024-01-11T13:24:07;29.40;;;20.02;;
3747;SDS011;1889;50.058;8.688;2024-01-11T13:26:37;30.02;;;19.37;;
3747;SDS011;1889;50.058;8.688;2024-01-11T13:29:08;27.37;;;17.32;;
3747;SDS011;1889;50.058;8.688;2024-01-11T13:31:38;27.95;;;17.48;;
3747;SDS011;1889;50.058;8.688;2024-01-11T13:34:08;26.75;;;17.87;;
3747;SDS011;1889;50.058;8.688;2024-01-11T13:36:43;27.40;;;17.60;;
3747;SDS011;1889;50.058;8.688;2024-01-11T13:39:13;29.90;;;19.45;;
3747;SDS011;1889;50.058;8.688;2024-01-11T13:41:44;27.55;;;18.27;;
3747;SDS011;1889;50.058;8.688;2024-01-11T13:44:13;27.95;;;18.07;;
3747;SDS011;1889;50.058;8.688;2024-01-11T13:46:43;29.35;;;19.25;;
3747;SDS011;1889;50.058;8.688;2024-01-11T13:49:12;31.07;;;18.70;;
3747;SDS011;1889;50.058;8.688;2024-01-11T13:51:42;26.20;;;18.75;;
3747;SDS011;1889;50.058;8.688;2024-01-11T13:54:12;28.92;;;19.40;;
3747;SDS011;1889;50.058;8.688;2024-01-11T13:56:41;30.77;;;19.30;;
3747;SDS011;1889;50.058;8.688;2024-01-11T13:59:11;28.50;;;19.42;;
3747;SDS011;1889;50.058;8.688;2024-01-11T14:01:40;27.20;;;19.40;;
3747;SDS011;1889;50.058;8.688;2024-01-11T14:04:09;26.87;;;18.25;;
3747;SDS011;1889;50.058;8.688;2024-01-11T14:06:40;26.42;;;19.17;;
3747;SDS011;1889;50.058;8.688;2024-01-11T14:09:09;27.22;;;18.32;;
3747;SDS011;1889;50.058;8.688;2024-01-11T14:11:41;30.52;;;19.65;;
3747;SDS011;1889;50.058;8.688;2024-01-11T14:14:10;28.75;;;18.82;;
3747;SDS011;1889;50.058;8.688;2024-01-11T14:16:40;35.28;;;19.67;;
3747;SDS011;1889;50.058;8.688;2024-01-11T14:19:10;29.98;;;19.98;;
3747;SDS011;1889;50.058;8.688;2024-01-11T14:21:40;27.80;;;19.02;;
3747;SDS011;1889;50.058;8.688;2024-01-11T14:24:09;27.10;;;18.67;;
3747;SDS011;1889;50.058;8.688;2024-01-11T14:26:39;26.48;;;18.52;;
3747;SDS011;1889;50.058;8.688;2024-01-11T14:29:08;28.90;;;20.15;;
3747;SDS011;1889;50.058;8.688;2024-01-11T14:31:38;30.12;;;19.30;;
3747;SDS011;1889;50.058;8.688;2024-01-11T14:34:07;29.25;;;19.00;;
3747;SDS011;1889;50.058;8.688;2024-01-11T14:36:39;29.60;;;20.90;;
3747;SDS011;1889;50.058;8.688;2024-01-11T14:39:08;28.92;;;19.90;;
3747;SDS011;1889;50.058;8.688;2024-01-11T14:41:38;26.90;;;19.57;;
3747;SDS011;1889;50.058;8.688;2024-01-11T14:44:07;26.33;;;19.73;;
3747;SDS011;1889;50.058;8.688;2024-01-11T14:46:38;32.42;;;20.35;;
3747;SDS011;1889;50.058;8.688;2024-01-11T14:49:12;31.30;;;20.75;;
3747;SDS011;1889;50.058;8.688;2024-01-11T14:51:43;28.27;;;19.87;;
3747;SDS011;1889;50.058;8.688;2024-01-11T14:54:13;27.85;;;20.32;;
3747;SDS011;1889;50.058;8.688;2024-01-11T14:56:44;30.25;;;21.17;;
3747;SDS011;1889;50.058;8.688;2024-01-11T14:59:15;27.35;;;19.73;;
3747;SDS011;1889;50.058;8.688;2024-01-11T15:01:44;29.50;;;20.68;;
3747;SDS011;1889;50.058;8.688;2024-01-11T15:04:16;28.65;;;19.77;;